sensor_id;sensor_type;location;lat;lon;timestamp;P1;durP1;ratioP1;P2;durP2;ratioP2
57567;SDS011;43403;51.948;5.922;2023-07-13T00:01:31;6.15;;;1.70;;
57567;SDS011;43403;51.948;5.922;2023-07-13T00:03:57;6.43;;;1.98;;
57567;SDS011;43403;51.948;5.922;2023-07-13T00:06:25;9.93;;;2.00;;
57567;SDS011;43403;51.948;5.922;2023-07-13T00:08:59;7.45;;;1.90;;
57567;SDS011;43403;51.948;5.922;2023-07-13T00:11:25;6.93;;;1.92;;
57567;SDS011;43403;51.948;5.922;2023-07-13T00:13:52;8.68;;;1.95;;
57567;SDS011;43403;51.948;5.922;2023-07-13T00:16:19;4.13;;;1.40;;
57567;SDS011;43403;51.948;5.922;2023-07-13T00:18:46;6.60;;;1.67;;
57567;SDS011;43403;51.948;5.922;2023-07-13T00:21:13;5.47;;;1.38;;
57567;SDS011;43403;51.948;5.922;2023-07-13T00:23:41;4.28;;;1.55;;
57567;SDS011;43403;51.948;5.922;2023-07-13T00:26:08;6.32;;;1.83;;
57567;SDS011;43403;51.948;5.922;2023-07-13T00:28:37;5.25;;;1.52;;
57567;SDS011;43403;51.948;5.922;2023-07-13T00:33:35;7.55;;;1.73;;
57567;SDS011;43403;51.948;5.922;2023-07-13T00:36:02;7.85;;;1.80;;
57567;SDS011;43403;51.948;5.922;2023-07-13T00:38:29;6.50;;;1.60;;
57567;SDS011;43403;51.948;5.922;2023-07-13T00:40:56;7.28;;;1.85;;
57567;SDS011;43403;51.948;5.922;2023-07-13T00:43:23;8.68;;;2.00;;
57567;SDS011;43403;51.948;5.922;2023-07-13T00:48:26;6.45;;;1.65;;
57567;SDS011;43403;51.948;5.922;2023-07-13T00:50:56;10.45;;;1.55;;
57567;SDS011;43403;51.948;5.922;2023-07-13T00:53:26;6.97;;;1.40;;
57567;SDS011;43403;51.948;5.922;2023-07-13T00:55:55;5.25;;;1.77;;
57567;SDS011;43403;51.948;5.922;2023-07-13T00:58:26;4.22;;;1.38;;
57567;SDS011;43403;51.948;5.922;2023-07-13T01:00:53;6.03;;;1.90;;
57567;SDS011;43403;51.948;5.922;2023-07-13T01:03:20;8.63;;;1.80;;
57567;SDS011;43403;51.948;5.922;2023-07-13T01:05:47;3.25;;;1.52;;
57567;SDS011;43403;51.948;5.922;2023-07-13T01:08:15;7.22;;;1.40;;
57567;SDS011;43403;51.948;5.922;2023-07-13T01:10:52;7.85;;;2.00;;
57567;SDS011;43403;51.948;5.922;2023-07-13T01:13:20;7.93;;;1.70;;
57567;SDS011;43403;51.948;5.922;2023-07-13T01:15:48;7.32;;;1.80;;
57567;SDS011;43403;51.948;5.922;2023-07-13T01:18:20;4.43;;;1.67;;
57567;SDS011;43403;51.948;5.922;2023-07-13T01:20:51;8.10;;;1.60;;
57567;SDS011;43403;51.948;5.922;2023-07-13T01:23:18;7.60;;;1.50;;
57567;SDS011;43403;51.948;5.922;2023-07-13T01:25:45;4.88;;;1.40;;
57567;SDS011;43403;51.948;5.922;2023-07-13T01:28:12;7.78;;;1.58;;
57567;SDS011;43403;51.948;5.922;2023-07-13T01:30:38;5.32;;;1.83;;
57567;SDS011;43403;51.948;5.922;2023-07-13T01:33:07;11.27;;;1.90;;
57567;SDS011;43403;51.948;5.922;2023-07-13T01:35:34;5.40;;;1.65;;
57567;SDS011;43403;51.948;5.922;2023-07-13T01:38:00;5.05;;;1.58;;
57567;SDS011;43403;51.948;5.922;2023-07-13T01:40:28;5.72;;;1.98;;
57567;SDS011;43403;51.948;5.922;2023-07-13T01:42:57;8.27;;;2.10;;
57567;SDS011;43403;51.948;5.922;2023-07-13T01:45:24;10.05;;;2.05;;
57567;SDS011;43403;51.948;5.922;2023-07-13T01:47:50;5.40;;;2.00;;
57567;SDS011;43403;51.948;5.922;2023-07-13T01:50:17;7.85;;;2.38;;
57567;SDS011;43403;51.948;5.922;2023-07-13T01:52:44;10.02;;;2.53;;
57567;SDS011;43403;51.948;5.922;2023-07-13T01:55:10;7.05;;;2.05;;
57567;SDS011;43403;51.948;5.922;2023-07-13T01:57:37;9.82;;;2.30;;
57567;SDS011;43403;51.948;5.922;2023-07-13T02:00:04;6.55;;;2.30;;
57567;SDS011;43403;51.948;5.922;2023-07-13T02:02:32;8.70;;;2.28;;
57567;SDS011;43403;51.948;5.922;2023-07-13T02:04:58;9.30;;;1.98;;
57567;SDS011;43403;51.948;5.922;2023-07-13T02:07:25;7.95;;;2.10;;
57567;SDS011;43403;51.948;5.922;2023-07-13T02:09:51;10.13;;;2.53;;
57567;SDS011;43403;51.948;5.922;2023-07-13T02:12:18;11.20;;;2.60;;
57567;SDS011;43403;51.948;5.922;2023-07-13T02:14:44;17.38;;;2.80;;
57567;SDS011;43403;51.948;5.922;2023-07-13T02:17:11;6.90;;;2.20;;
57567;SDS011;43403;51.948;5.922;2023-07-13T02:19:38;6.28;;;2.42;;
57567;SDS011;43403;51.948;5.922;2023-07-13T02:22:04;8.30;;;2.38;;
57567;SDS011;43403;51.948;5.922;2023-07-13T02:24:31;8.52;;;2.25;;
57567;SDS011;43403;51.948;5.922;2023-07-13T02:26:57;7.72;;;2.38;;
57567;SDS011;43403;51.948;5.922;2023-07-13T02:29:24;11.10;;;2.45;;
57567;SDS011;43403;51.948;5.922;2023-07-13T02:31:50;11.48;;;3.05;;
57567;SDS011;43403;51.948;5.922;2023-07-13T02:34:17;9.45;;;2.78;;
57567;SDS011;43403;51.948;5.922;2023-07-13T02:36:43;9.77;;;2.38;;
57567;SDS011;43403;51.948;5.922;2023-07-13T02:39:10;6.68;;;2.40;;
57567;SDS011;43403;51.948;5.922;2023-07-13T02:41:38;8.32;;;2.47;;
57567;SDS011;43403;51.948;5.922;2023-07-13T02:44:04;9.70;;;2.45;;
57567;SDS011;43403;51.948;5.922;2023-07-13T02:46:35;6.28;;;2.53;;
57567;SDS011;43403;51.948;5.922;2023-07-13T02:49:03;9.10;;;2.80;;
57567;SDS011;43403;51.948;5.922;2023-07-13T02:51:30;7.38;;;2.67;;
57567;SDS011;43403;51.948;5.922;2023-07-13T02:54:00;7.45;;;2.50;;
57567;SDS011;43403;51.948;5.922;2023-07-13T02:56:27;11.00;;;2.78;;
57567;SDS011;43403;51.948;5.922;2023-07-13T02:58:55;16.83;;;3.60;;
57567;SDS011;43403;51.948;5.922;2023-07-13T03:01:21;8.48;;;2.42;;
57567;SDS011;43403;51.948;5.922;2023-07-13T03:03:49;12.07;;;3.37;;
57567;SDS011;43403;51.948;5.922;2023-07-13T03:06:17;8.65;;;2.42;;
57567;SDS011;43403;51.948;5.922;2023-07-13T03:08:44;7.40;;;2.88;;
57567;SDS011;43403;51.948;5.922;2023-07-13T03:11:12;9.25;;;2.63;;
57567;SDS011;43403;51.948;5.922;2023-07-13T03:13:41;9.45;;;2.80;;
57567;SDS011;43403;51.948;5.922;2023-07-13T03:16:08;13.33;;;3.03;;
57567;SDS011;43403;51.948;5.922;2023-07-13T03:18:37;11.40;;;3.17;;
57567;SDS011;43403;51.948;5.922;2023-07-13T03:21:04;9.43;;;3.20;;
57567;SDS011;43403;51.948;5.922;2023-07-13T03:23:32;12.27;;;3.33;;
57567;SDS011;43403;51.948;5.922;2023-07-13T03:26:05;8.10;;;2.50;;
57567;SDS011;43403;51.948;5.922;2023-07-13T03:28:34;10.35;;;3.08;;
57567;SDS011;43403;51.948;5.922;2023-07-13T03:31:02;11.45;;;3.13;;
57567;SDS011;43403;51.948;5.922;2023-07-13T03:33:31;13.63;;;3.53;;
57567;SDS011;43403;51.948;5.922;2023-07-13T03:35:58;12.00;;;3.10;;
57567;SDS011;43403;51.948;5.922;2023-07-13T03:38:25;8.45;;;2.90;;
57567;SDS011;43403;51.948;5.922;2023-07-13T03:40:52;8.75;;;3.08;;
57567;SDS011;43403;51.948;5.922;2023-07-13T03:43:19;8.40;;;3.10;;
57567;SDS011;43403;51.948;5.922;2023-07-13T03:45:46;9.93;;;3.10;;
57567;SDS011;43403;51.948;5.922;2023-07-13T03:48:13;11.18;;;3.00;;
57567;SDS011;43403;51.948;5.922;2023-07-13T03:50:40;9.10;;;3.42;;
57567;SDS011;43403;51.948;5.922;2023-07-13T03:53:07;10.15;;;3.10;;
57567;SDS011;43403;51.948;5.922;2023-07-13T03:55:33;15.80;;;3.90;;
57567;SDS011;43403;51.948;5.922;2023-07-13T03:58:46;13.05;;;3.42;;
57567;SDS011;43403;51.948;5.922;2023-07-13T04:00:58;12.25;;;3.50;;
57567;SDS011;43403;51.948;5.922;2023-07-13T04:03:25;7.57;;;2.72;;
57567;SDS011;43403;51.948;5.922;2023-07-13T04:05:54;16.42;;;4.00;;
57567;SDS011;43403;51.948;5.922;2023-07-13T04:08:29;12.88;;;3.50;;
57567;SDS011;43403;51.948;5.922;2023-07-13T04:10:59;9.15;;;3.58;;
57567;SDS011;43403;51.948;5.922;2023-07-13T04:13:26;9.80;;;3.38;;
57567;SDS011;43403;51.948;5.922;2023-07-13T04:15:53;9.60;;;3.15;;
57567;SDS011;43403;51.948;5.922;2023-07-13T04:18:20;18.85;;;4.88;;
57567;SDS011;43403;51.948;5.922;2023-07-13T04:20:48;10.32;;;4.35;;
57567;SDS011;43403;51.948;5.922;2023-07-13T04:23:18;9.60;;;4.20;;
57567;SDS011;43403;51.948;5.922;2023-07-13T04:25:45;15.05;;;3.70;;
57567;SDS011;43403;51.948;5.922;2023-07-13T04:28:15;12.20;;;3.65;;
57567;SDS011;43403;51.948;5.922;2023-07-13T04:30:43;12.93;;;4.15;;
57567;SDS011;43403;51.948;5.922;2023-07-13T04:33:10;13.57;;;4.57;;
57567;SDS011;43403;51.948;5.922;2023-07-13T04:35:37;9.20;;;3.47;;
57567;SDS011;43403;51.948;5.922;2023-07-13T04:38:04;14.38;;;4.43;;
57567;SDS011;43403;51.948;5.922;2023-07-13T04:40:30;17.33;;;4.35;;
57567;SDS011;43403;51.948;5.922;2023-07-13T04:42:57;13.23;;;3.85;;
57567;SDS011;43403;51.948;5.922;2023-07-13T04:45:24;11.32;;;4.50;;
57567;SDS011;43403;51.948;5.922;2023-07-13T04:47:50;13.02;;;3.70;;
57567;SDS011;43403;51.948;5.922;2023-07-13T04:50:17;10.43;;;3.65;;
57567;SDS011;43403;51.948;5.922;2023-07-13T04:52:47;19.95;;;4.68;;
57567;SDS011;43403;51.948;5.922;2023-07-13T04:55:13;13.40;;;5.05;;
57567;SDS011;43403;51.948;5.922;2023-07-13T04:57:40;15.43;;;4.47;;
57567;SDS011;43403;51.948;5.922;2023-07-13T05:00:07;14.77;;;3.90;;
57567;SDS011;43403;51.948;5.922;2023-07-13T05:02:34;16.98;;;5.85;;
57567;SDS011;43403;51.948;5.922;2023-07-13T05:05:01;16.52;;;4.90;;
57567;SDS011;43403;51.948;5.922;2023-07-13T05:07:29;16.35;;;4.80;;
57567;SDS011;43403;51.948;5.922;2023-07-13T05:09:56;12.95;;;4.28;;
57567;SDS011;43403;51.948;5.922;2023-07-13T05:12:23;15.40;;;4.93;;
57567;SDS011;43403;51.948;5.922;2023-07-13T05:14:49;16.42;;;5.20;;
57567;SDS011;43403;51.948;5.922;2023-07-13T05:17:15;16.38;;;5.07;;
57567;SDS011;43403;51.948;5.922;2023-07-13T05:19:42;14.85;;;5.15;;
57567;SDS011;43403;51.948;5.922;2023-07-13T05:22:09;13.43;;;4.80;;
57567;SDS011;43403;51.948;5.922;2023-07-13T05:24:36;20.45;;;5.63;;
57567;SDS011;43403;51.948;5.922;2023-07-13T05:27:02;13.75;;;5.00;;
57567;SDS011;43403;51.948;5.922;2023-07-13T05:29:29;18.48;;;6.18;;
57567;SDS011;43403;51.948;5.922;2023-07-13T05:31:55;14.02;;;5.50;;
57567;SDS011;43403;51.948;5.922;2023-07-13T05:34:22;16.30;;;5.93;;
57567;SDS011;43403;51.948;5.922;2023-07-13T05:36:49;14.40;;;5.93;;
57567;SDS011;43403;51.948;5.922;2023-07-13T05:39:16;20.50;;;6.03;;
57567;SDS011;43403;51.948;5.922;2023-07-13T05:41:42;14.57;;;5.65;;
57567;SDS011;43403;51.948;5.922;2023-07-13T05:44:09;18.83;;;6.50;;
57567;SDS011;43403;51.948;5.922;2023-07-13T05:46:35;16.15;;;5.93;;
57567;SDS011;43403;51.948;5.922;2023-07-13T05:49:02;20.33;;;6.55;;
57567;SDS011;43403;51.948;5.922;2023-07-13T05:51:29;19.88;;;6.07;;
57567;SDS011;43403;51.948;5.922;2023-07-13T05:53:55;24.40;;;7.47;;
57567;SDS011;43403;51.948;5.922;2023-07-13T05:56:22;25.90;;;7.35;;
57567;SDS011;43403;51.948;5.922;2023-07-13T05:58:48;23.45;;;6.68;;
57567;SDS011;43403;51.948;5.922;2023-07-13T06:01:16;20.92;;;7.93;;
57567;SDS011;43403;51.948;5.922;2023-07-13T06:03:43;20.95;;;7.22;;
57567;SDS011;43403;51.948;5.922;2023-07-13T06:06:10;22.92;;;8.05;;
57567;SDS011;43403;51.948;5.922;2023-07-13T06:08:37;24.35;;;8.35;;
57567;SDS011;43403;51.948;5.922;2023-07-13T06:11:08;20.60;;;8.45;;
57567;SDS011;43403;51.948;5.922;2023-07-13T06:13:39;20.30;;;8.70;;
57567;SDS011;43403;51.948;5.922;2023-07-13T06:16:06;24.23;;;9.10;;
57567;SDS011;43403;51.948;5.922;2023-07-13T06:18:33;22.15;;;8.80;;
57567;SDS011;43403;51.948;5.922;2023-07-13T06:21:01;28.52;;;10.60;;
57567;SDS011;43403;51.948;5.922;2023-07-13T06:23:32;24.85;;;9.77;;
57567;SDS011;43403;51.948;5.922;2023-07-13T06:25:58;21.50;;;9.82;;
57567;SDS011;43403;51.948;5.922;2023-07-13T06:28:25;27.92;;;11.18;;
57567;SDS011;43403;51.948;5.922;2023-07-13T06:30:51;23.33;;;10.52;;
57567;SDS011;43403;51.948;5.922;2023-07-13T06:33:18;26.73;;;9.85;;
57567;SDS011;43403;51.948;5.922;2023-07-13T06:35:44;23.33;;;10.52;;
57567;SDS011;43403;51.948;5.922;2023-07-13T06:38:11;23.90;;;10.70;;
57567;SDS011;43403;51.948;5.922;2023-07-13T06:40:37;22.27;;;10.20;;
57567;SDS011;43403;51.948;5.922;2023-07-13T06:43:04;28.42;;;10.30;;
57567;SDS011;43403;51.948;5.922;2023-07-13T06:45:30;22.90;;;11.02;;
57567;SDS011;43403;51.948;5.922;2023-07-13T06:48:01;23.92;;;11.10;;
57567;SDS011;43403;51.948;5.922;2023-07-13T06:50:27;23.10;;;10.82;;
57567;SDS011;43403;51.948;5.922;2023-07-13T06:52:54;19.90;;;9.43;;
57567;SDS011;43403;51.948;5.922;2023-07-13T06:55:20;23.52;;;10.25;;
57567;SDS011;43403;51.948;5.922;2023-07-13T06:57:47;26.10;;;11.05;;
57567;SDS011;43403;51.948;5.922;2023-07-13T07:00:13;25.00;;;11.18;;
57567;SDS011;43403;51.948;5.922;2023-07-13T07:02:40;24.70;;;12.02;;
57567;SDS011;43403;51.948;5.922;2023-07-13T07:05:07;25.77;;;10.50;;
57567;SDS011;43403;51.948;5.922;2023-07-13T07:07:33;23.10;;;10.93;;
57567;SDS011;43403;51.948;5.922;2023-07-13T07:10:00;25.58;;;10.63;;
57567;SDS011;43403;51.948;5.922;2023-07-13T07:12:28;21.35;;;10.38;;
57567;SDS011;43403;51.948;5.922;2023-07-13T07:17:21;28.20;;;11.45;;
57567;SDS011;43403;51.948;5.922;2023-07-13T07:19:50;24.13;;;10.23;;
57567;SDS011;43403;51.948;5.922;2023-07-13T07:22:17;24.27;;;11.25;;
57567;SDS011;43403;51.948;5.922;2023-07-13T07:24:43;25.40;;;11.15;;
57567;SDS011;43403;51.948;5.922;2023-07-13T07:27:09;23.02;;;10.88;;
57567;SDS011;43403;51.948;5.922;2023-07-13T07:29:39;28.25;;;11.80;;
57567;SDS011;43403;51.948;5.922;2023-07-13T07:32:12;19.92;;;11.45;;
57567;SDS011;43403;51.948;5.922;2023-07-13T07:34:59;24.05;;;10.30;;
57567;SDS011;43403;51.948;5.922;2023-07-13T07:37:25;25.38;;;11.43;;
57567;SDS011;43403;51.948;5.922;2023-07-13T07:40:12;20.30;;;9.52;;
57567;SDS011;43403;51.948;5.922;2023-07-13T07:42:42;19.80;;;11.07;;
57567;SDS011;43403;51.948;5.922;2023-07-13T07:45:08;21.13;;;10.23;;
57567;SDS011;43403;51.948;5.922;2023-07-13T07:47:37;19.48;;;10.40;;
57567;SDS011;43403;51.948;5.922;2023-07-13T07:50:04;22.30;;;12.05;;
57567;SDS011;43403;51.948;5.922;2023-07-13T07:52:31;29.08;;;11.20;;
57567;SDS011;43403;51.948;5.922;2023-07-13T07:54:58;23.83;;;11.05;;
57567;SDS011;43403;51.948;5.922;2023-07-13T07:57:27;19.33;;;10.68;;
57567;SDS011;43403;51.948;5.922;2023-07-13T07:59:57;22.65;;;10.48;;
57567;SDS011;43403;51.948;5.922;2023-07-13T08:02:26;21.65;;;10.77;;
57567;SDS011;43403;51.948;5.922;2023-07-13T08:04:55;22.73;;;11.07;;
57567;SDS011;43403;51.948;5.922;2023-07-13T08:07:25;21.15;;;12.25;;
57567;SDS011;43403;51.948;5.922;2023-07-13T08:09:52;23.23;;;10.70;;
57567;SDS011;43403;51.948;5.922;2023-07-13T08:12:19;21.17;;;10.70;;
57567;SDS011;43403;51.948;5.922;2023-07-13T08:15:06;19.92;;;10.25;;
57567;SDS011;43403;51.948;5.922;2023-07-13T08:17:36;20.65;;;11.10;;
57567;SDS011;43403;51.948;5.922;2023-07-13T08:20:03;23.67;;;10.50;;
57567;SDS011;43403;51.948;5.922;2023-07-13T08:22:30;23.67;;;11.13;;
57567;SDS011;43403;51.948;5.922;2023-07-13T08:24:57;20.02;;;10.93;;
57567;SDS011;43403;51.948;5.922;2023-07-13T08:29:52;22.60;;;10.97;;
57567;SDS011;43403;51.948;5.922;2023-07-13T08:32:20;22.98;;;9.73;;
57567;SDS011;43403;51.948;5.922;2023-07-13T08:34:48;16.05;;;9.90;;
57567;SDS011;43403;51.948;5.922;2023-07-13T08:37:15;23.05;;;9.85;;
57567;SDS011;43403;51.948;5.922;2023-07-13T08:39:42;23.02;;;10.05;;
57567;SDS011;43403;51.948;5.922;2023-07-13T08:45:06;17.90;;;10.10;;
57567;SDS011;43403;51.948;5.922;2023-07-13T08:47:51;18.00;;;10.10;;
57567;SDS011;43403;51.948;5.922;2023-07-13T08:50:21;22.13;;;10.10;;
57567;SDS011;43403;51.948;5.922;2023-07-13T08:52:53;19.35;;;8.15;;
57567;SDS011;43403;51.948;5.922;2023-07-13T08:57:53;18.38;;;8.88;;
57567;SDS011;43403;51.948;5.922;2023-07-13T09:00:25;16.23;;;9.20;;
57567;SDS011;43403;51.948;5.922;2023-07-13T09:03:04;17.60;;;9.52;;
57567;SDS011;43403;51.948;5.922;2023-07-13T09:05:38;13.88;;;8.93;;
57567;SDS011;43403;51.948;5.922;2023-07-13T09:10:52;18.50;;;8.27;;
57567;SDS011;43403;51.948;5.922;2023-07-13T09:13:29;13.70;;;7.95;;
57567;SDS011;43403;51.948;5.922;2023-07-13T09:16:11;13.75;;;7.97;;
57567;SDS011;43403;51.948;5.922;2023-07-13T09:18:53;12.68;;;7.68;;
57567;SDS011;43403;51.948;5.922;2023-07-13T09:21:28;14.60;;;6.75;;
57567;SDS011;43403;51.948;5.922;2023-07-13T09:24:01;15.75;;;7.43;;
57567;SDS011;43403;51.948;5.922;2023-07-13T09:26:43;14.52;;;7.47;;
57567;SDS011;43403;51.948;5.922;2023-07-13T09:29:14;13.52;;;6.18;;
57567;SDS011;43403;51.948;5.922;2023-07-13T09:31:50;13.75;;;6.68;;
57567;SDS011;43403;51.948;5.922;2023-07-13T09:34:23;14.13;;;5.88;;
57567;SDS011;43403;51.948;5.922;2023-07-13T09:36:49;19.05;;;7.25;;
57567;SDS011;43403;51.948;5.922;2023-07-13T09:39:26;10.05;;;5.82;;
57567;SDS011;43403;51.948;5.922;2023-07-13T09:42:12;13.68;;;5.82;;
57567;SDS011;43403;51.948;5.922;2023-07-13T09:44:55;13.40;;;6.38;;
57567;SDS011;43403;51.948;5.922;2023-07-13T09:47:29;13.15;;;6.80;;
57567;SDS011;43403;51.948;5.922;2023-07-13T09:49:59;12.73;;;8.02;;
57567;SDS011;43403;51.948;5.922;2023-07-13T09:52:42;12.82;;;8.50;;
57567;SDS011;43403;51.948;5.922;2023-07-13T09:55:23;16.02;;;8.60;;
57567;SDS011;43403;51.948;5.922;2023-07-13T09:57:58;15.15;;;8.73;;
57567;SDS011;43403;51.948;5.922;2023-07-13T10:00:31;11.63;;;6.35;;
57567;SDS011;43403;51.948;5.922;2023-07-13T10:03:00;13.63;;;7.13;;
57567;SDS011;43403;51.948;5.922;2023-07-13T10:05:42;10.45;;;5.90;;
57567;SDS011;43403;51.948;5.922;2023-07-13T10:08:16;13.35;;;7.30;;
57567;SDS011;43403;51.948;5.922;2023-07-13T10:10:58;15.75;;;8.40;;
57567;SDS011;43403;51.948;5.922;2023-07-13T10:13:36;13.23;;;7.57;;
57567;SDS011;43403;51.948;5.922;2023-07-13T10:16:06;13.85;;;7.97;;
57567;SDS011;43403;51.948;5.922;2023-07-13T10:18:44;19.27;;;7.63;;
57567;SDS011;43403;51.948;5.922;2023-07-13T10:21:18;15.13;;;8.07;;
57567;SDS011;43403;51.948;5.922;2023-07-13T10:24:09;14.70;;;6.93;;
57567;SDS011;43403;51.948;5.922;2023-07-13T10:26:45;12.50;;;6.60;;
57567;SDS011;43403;51.948;5.922;2023-07-13T10:29:15;18.50;;;6.88;;
57567;SDS011;43403;51.948;5.922;2023-07-13T10:31:44;14.77;;;6.00;;
57567;SDS011;43403;51.948;5.922;2023-07-13T10:34:11;12.38;;;5.80;;
57567;SDS011;43403;51.948;5.922;2023-07-13T10:36:43;11.32;;;5.28;;
57567;SDS011;43403;51.948;5.922;2023-07-13T10:39:18;10.32;;;5.85;;
57567;SDS011;43403;51.948;5.922;2023-07-13T10:41:48;10.57;;;5.30;;
57567;SDS011;43403;51.948;5.922;2023-07-13T10:44:29;11.25;;;5.93;;
57567;SDS011;43403;51.948;5.922;2023-07-13T10:47:01;12.82;;;6.40;;
57567;SDS011;43403;51.948;5.922;2023-07-13T10:49:32;15.38;;;6.38;;
57567;SDS011;43403;51.948;5.922;2023-07-13T10:52:01;12.88;;;6.07;;
57567;SDS011;43403;51.948;5.922;2023-07-13T10:57:10;13.52;;;6.57;;
57567;SDS011;43403;51.948;5.922;2023-07-13T11:02:28;11.50;;;5.88;;
57567;SDS011;43403;51.948;5.922;2023-07-13T11:04:56;10.43;;;5.15;;
57567;SDS011;43403;51.948;5.922;2023-07-13T11:07:28;12.40;;;5.03;;
57567;SDS011;43403;51.948;5.922;2023-07-13T11:09:57;15.65;;;5.30;;
57567;SDS011;43403;51.948;5.922;2023-07-13T11:15:12;9.48;;;4.20;;
57567;SDS011;43403;51.948;5.922;2023-07-13T11:17:47;9.82;;;4.30;;
57567;SDS011;43403;51.948;5.922;2023-07-13T11:20:41;10.18;;;4.75;;
57567;SDS011;43403;51.948;5.922;2023-07-13T11:25:37;8.48;;;3.90;;
57567;SDS011;43403;51.948;5.922;2023-07-13T11:28:06;9.23;;;3.50;;
57567;SDS011;43403;51.948;5.922;2023-07-13T11:35:59;7.57;;;3.72;;
57567;SDS011;43403;51.948;5.922;2023-07-13T11:41:06;7.13;;;3.33;;
57567;SDS011;43403;51.948;5.922;2023-07-13T11:43:41;8.07;;;3.67;;
57567;SDS011;43403;51.948;5.922;2023-07-13T11:46:12;9.73;;;3.70;;
57567;SDS011;43403;51.948;5.922;2023-07-13T11:48:46;7.22;;;3.17;;
57567;SDS011;43403;51.948;5.922;2023-07-13T11:51:19;8.95;;;3.30;;
57567;SDS011;43403;51.948;5.922;2023-07-13T11:53:49;6.28;;;2.88;;
57567;SDS011;43403;51.948;5.922;2023-07-13T11:56:20;12.15;;;3.80;;
57567;SDS011;43403;51.948;5.922;2023-07-13T11:58:49;7.50;;;3.42;;
57567;SDS011;43403;51.948;5.922;2023-07-13T12:01:21;5.07;;;3.00;;
57567;SDS011;43403;51.948;5.922;2023-07-13T12:03:55;8.40;;;3.28;;
57567;SDS011;43403;51.948;5.922;2023-07-13T12:06:27;7.80;;;3.22;;
57567;SDS011;43403;51.948;5.922;2023-07-13T12:08:59;10.02;;;4.00;;
57567;SDS011;43403;51.948;5.922;2023-07-13T12:11:29;9.13;;;3.88;;
57567;SDS011;43403;51.948;5.922;2023-07-13T12:13:56;9.55;;;3.72;;
57567;SDS011;43403;51.948;5.922;2023-07-13T12:16:28;11.30;;;4.80;;
57567;SDS011;43403;51.948;5.922;2023-07-13T12:18:56;8.20;;;3.97;;
57567;SDS011;43403;51.948;5.922;2023-07-13T12:21:33;9.95;;;4.50;;
57567;SDS011;43403;51.948;5.922;2023-07-13T12:24:03;8.35;;;3.80;;
57567;SDS011;43403;51.948;5.922;2023-07-13T12:26:31;7.95;;;3.65;;
57567;SDS011;43403;51.948;5.922;2023-07-13T12:28:59;11.00;;;3.95;;
57567;SDS011;43403;51.948;5.922;2023-07-13T12:31:33;9.00;;;3.45;;
57567;SDS011;43403;51.948;5.922;2023-07-13T12:34:08;9.60;;;3.55;;
57567;SDS011;43403;51.948;5.922;2023-07-13T12:36:45;6.97;;;3.53;;
57567;SDS011;43403;51.948;5.922;2023-07-13T12:39:21;7.97;;;3.90;;
57567;SDS011;43403;51.948;5.922;2023-07-13T12:42:18;11.77;;;3.70;;
57567;SDS011;43403;51.948;5.922;2023-07-13T12:45:00;8.55;;;3.50;;
57567;SDS011;43403;51.948;5.922;2023-07-13T12:47:31;7.75;;;3.55;;
57567;SDS011;43403;51.948;5.922;2023-07-13T12:50:18;8.40;;;3.30;;
57567;SDS011;43403;51.948;5.922;2023-07-13T12:52:53;8.93;;;3.08;;
57567;SDS011;43403;51.948;5.922;2023-07-13T12:55:23;5.85;;;2.70;;
57567;SDS011;43403;51.948;5.922;2023-07-13T12:57:51;7.97;;;3.30;;
57567;SDS011;43403;51.948;5.922;2023-07-13T13:02:52;9.90;;;3.33;;
57567;SDS011;43403;51.948;5.922;2023-07-13T13:05:27;5.22;;;2.70;;
57567;SDS011;43403;51.948;5.922;2023-07-13T13:07:55;5.88;;;2.85;;
57567;SDS011;43403;51.948;5.922;2023-07-13T13:10:23;8.25;;;2.88;;
57567;SDS011;43403;51.948;5.922;2023-07-13T13:12:50;8.65;;;3.17;;
57567;SDS011;43403;51.948;5.922;2023-07-13T13:15:18;6.63;;;2.80;;
57567;SDS011;43403;51.948;5.922;2023-07-13T13:17:45;7.03;;;2.90;;
57567;SDS011;43403;51.948;5.922;2023-07-13T13:20:15;7.80;;;2.55;;
57567;SDS011;43403;51.948;5.922;2023-07-13T13:22:44;4.22;;;1.85;;
57567;SDS011;43403;51.948;5.922;2023-07-13T13:25:11;6.07;;;2.25;;
57567;SDS011;43403;51.948;5.922;2023-07-13T13:27:41;4.90;;;2.15;;
57567;SDS011;43403;51.948;5.922;2023-07-13T13:30:10;3.35;;;2.30;;
57567;SDS011;43403;51.948;5.922;2023-07-13T13:32:39;4.15;;;2.40;;
57567;SDS011;43403;51.948;5.922;2023-07-13T13:37:40;4.03;;;2.25;;
57567;SDS011;43403;51.948;5.922;2023-07-13T13:40:14;5.50;;;2.10;;
57567;SDS011;43403;51.948;5.922;2023-07-13T13:42:42;6.15;;;2.20;;
57567;SDS011;43403;51.948;5.922;2023-07-13T13:45:10;4.93;;;2.10;;
57567;SDS011;43403;51.948;5.922;2023-07-13T13:47:38;3.55;;;2.28;;
57567;SDS011;43403;51.948;5.922;2023-07-13T13:50:13;5.00;;;2.22;;
57567;SDS011;43403;51.948;5.922;2023-07-13T13:52:42;4.20;;;2.33;;
57567;SDS011;43403;51.948;5.922;2023-07-13T13:55:16;5.18;;;2.30;;
57567;SDS011;43403;51.948;5.922;2023-07-13T13:57:45;5.97;;;2.10;;
57567;SDS011;43403;51.948;5.922;2023-07-13T14:00:12;5.85;;;2.00;;
57567;SDS011;43403;51.948;5.922;2023-07-13T14:02:41;4.07;;;2.20;;
57567;SDS011;43403;51.948;5.922;2023-07-13T14:05:15;3.67;;;2.22;;
57567;SDS011;43403;51.948;5.922;2023-07-13T14:07:50;3.35;;;2.03;;
57567;SDS011;43403;51.948;5.922;2023-07-13T14:10:17;8.30;;;2.28;;
57567;SDS011;43403;51.948;5.922;2023-07-13T14:12:45;4.93;;;2.10;;
57567;SDS011;43403;51.948;5.922;2023-07-13T14:15:21;4.40;;;2.25;;
57567;SDS011;43403;51.948;5.922;2023-07-13T14:17:49;3.35;;;2.08;;
57567;SDS011;43403;51.948;5.922;2023-07-13T14:20:20;7.45;;;2.20;;
57567;SDS011;43403;51.948;5.922;2023-07-13T14:22:48;4.75;;;2.30;;
57567;SDS011;43403;51.948;5.922;2023-07-13T14:25:16;8.77;;;2.38;;
57567;SDS011;43403;51.948;5.922;2023-07-13T14:27:44;4.55;;;2.22;;
57567;SDS011;43403;51.948;5.922;2023-07-13T14:32:40;7.30;;;2.53;;
57567;SDS011;43403;51.948;5.922;2023-07-13T14:35:10;7.93;;;2.30;;
57567;SDS011;43403;51.948;5.922;2023-07-13T14:37:42;4.97;;;2.20;;
57567;SDS011;43403;51.948;5.922;2023-07-13T14:40:21;5.57;;;2.03;;
57567;SDS011;43403;51.948;5.922;2023-07-13T14:42:52;6.40;;;2.30;;
57567;SDS011;43403;51.948;5.922;2023-07-13T14:45:19;5.43;;;2.22;;
57567;SDS011;43403;51.948;5.922;2023-07-13T14:47:46;3.95;;;2.10;;
57567;SDS011;43403;51.948;5.922;2023-07-13T14:52:46;6.55;;;2.00;;
57567;SDS011;43403;51.948;5.922;2023-07-13T14:55:15;3.55;;;2.13;;
57567;SDS011;43403;51.948;5.922;2023-07-13T14:57:43;5.78;;;2.42;;
57567;SDS011;43403;51.948;5.922;2023-07-13T15:00:17;4.10;;;2.10;;
57567;SDS011;43403;51.948;5.922;2023-07-13T15:02:47;6.05;;;2.10;;
57567;SDS011;43403;51.948;5.922;2023-07-13T15:05:20;5.97;;;2.22;;
57567;SDS011;43403;51.948;5.922;2023-07-13T15:07:51;4.18;;;2.30;;
57567;SDS011;43403;51.948;5.922;2023-07-13T15:10:20;6.80;;;2.25;;
57567;SDS011;43403;51.948;5.922;2023-07-13T15:12:50;7.15;;;1.88;;
57567;SDS011;43403;51.948;5.922;2023-07-13T15:15:17;4.80;;;2.20;;
57567;SDS011;43403;51.948;5.922;2023-07-13T15:17:45;5.68;;;2.30;;
57567;SDS011;43403;51.948;5.922;2023-07-13T15:20:31;5.15;;;2.10;;
57567;SDS011;43403;51.948;5.922;2023-07-13T15:23:00;3.83;;;2.05;;
57567;SDS011;43403;51.948;5.922;2023-07-13T15:25:28;3.80;;;2.13;;
57567;SDS011;43403;51.948;5.922;2023-07-13T15:27:57;8.07;;;2.30;;
57567;SDS011;43403;51.948;5.922;2023-07-13T15:30:38;4.50;;;1.98;;
57567;SDS011;43403;51.948;5.922;2023-07-13T15:33:30;3.38;;;1.80;;
57567;SDS011;43403;51.948;5.922;2023-07-13T15:35:57;5.68;;;2.08;;
57567;SDS011;43403;51.948;5.922;2023-07-13T15:38:27;8.82;;;2.38;;
57567;SDS011;43403;51.948;5.922;2023-07-13T15:40:56;5.50;;;2.47;;